createdAt,value
2018-09-04T00:00:17.834Z,18.80
2018-09-04T00:01:21.200Z,18.70
2018-09-04T00:02:24.535Z,18.70
2018-09-04T00:03:27.854Z,18.70
2018-09-04T00:04:31.202Z,18.80
2018-09-04T00:05:34.568Z,18.80
2018-09-04T00:06:37.928Z,18.80
2018-09-04T00:07:41.271Z,18.80
2018-09-04T00:08:44.642Z,18.90
2018-09-04T00:09:48.571Z,18.90
2018-09-04T00:10:51.926Z,18.90
2018-09-04T00:11:55.286Z,18.90
2018-09-04T00:12:58.610Z,18.90
2018-09-04T00:14:01.947Z,18.80
2018-09-04T00:15:05.428Z,18.90
2018-09-04T00:16:10.756Z,18.90
2018-09-04T00:17:14.138Z,18.90
2018-09-04T00:18:17.470Z,18.80
2018-09-04T00:19:20.786Z,18.80
2018-09-04T00:20:24.122Z,18.80
2018-09-04T00:21:27.466Z,18.70
2018-09-04T00:22:30.830Z,18.70
2018-09-04T00:23:34.182Z,18.70
2018-09-04T00:24:37.537Z,18.70
2018-09-04T00:25:40.860Z,18.70
2018-09-04T00:26:44.239Z,18.70
2018-09-04T00:27:47.599Z,18.80
2018-09-04T00:28:50.914Z,18.70
2018-09-04T00:29:54.250Z,18.80
2018-09-04T00:30:57.814Z,18.80
2018-09-04T00:32:01.166Z,18.80
2018-09-04T00:33:04.506Z,18.80
2018-09-04T00:34:07.837Z,18.80
2018-09-04T00:35:11.207Z,18.80
2018-09-04T00:36:14.518Z,18.80
2018-09-04T00:37:17.851Z,18.90
2018-09-04T00:38:21.219Z,18.90
2018-09-04T00:39:24.541Z,18.80
2018-09-04T00:40:27.889Z,18.80
2018-09-04T00:41:31.212Z,18.80
2018-09-04T00:42:34.546Z,18.80
2018-09-04T00:43:37.914Z,18.80
2018-09-04T00:44:44.174Z,18.80
2018-09-04T00:45:47.484Z,18.80
2018-09-04T00:46:50.802Z,18.70
2018-09-04T00:47:54.150Z,18.70
2018-09-04T00:48:57.548Z,18.70
2018-09-04T00:50:00.870Z,18.70
2018-09-04T00:51:04.240Z,18.70
2018-09-04T00:52:07.574Z,18.70
2018-09-04T00:53:10.924Z,18.70
2018-09-04T00:54:14.315Z,18.80
2018-09-04T00:55:17.651Z,18.80
2018-09-04T00:56:20.964Z,18.80
2018-09-04T00:57:24.425Z,18.80
2018-09-04T00:58:27.739Z,18.80
2018-09-04T00:59:31.047Z,18.80
2018-09-04T01:00:34.362Z,18.80
2018-09-04T01:01:37.793Z,18.80
2018-09-04T01:02:41.135Z,18.90
2018-09-04T01:03:44.480Z,18.80
2018-09-04T01:04:48.734Z,18.80
2018-09-04T01:05:52.055Z,18.80
2018-09-04T01:06:55.518Z,18.80
2018-09-04T01:07:58.850Z,18.70
2018-09-04T01:09:02.324Z,18.70
2018-09-04T01:10:05.693Z,18.60
2018-09-04T01:11:09.025Z,18.60
2018-09-04T01:12:12.416Z,18.60
2018-09-04T01:13:15.738Z,18.60
2018-09-04T01:14:19.103Z,18.60
2018-09-04T01:15:22.442Z,18.60
2018-09-04T01:16:25.805Z,18.70
2018-09-04T01:17:29.118Z,18.60
2018-09-04T01:18:32.448Z,18.60
2018-09-04T01:19:35.800Z,18.60
2018-09-04T01:20:39.143Z,18.60
2018-09-04T01:21:42.465Z,18.60
2018-09-04T01:22:45.819Z,18.60
2018-09-04T01:23:49.147Z,18.60
2018-09-04T01:24:52.470Z,18.60
2018-09-04T01:25:55.791Z,18.60
2018-09-04T01:26:59.122Z,18.60
2018-09-04T01:28:02.486Z,18.50
2018-09-04T01:29:06.124Z,18.40
2018-09-04T01:30:09.444Z,18.50
2018-09-04T01:31:12.799Z,18.40
2018-09-04T01:32:16.170Z,18.50
2018-09-04T01:33:19.499Z,18.50
2018-09-04T01:34:22.839Z,18.40
2018-09-04T01:35:26.179Z,18.40
2018-09-04T01:36:29.501Z,18.40
2018-09-04T01:37:32.836Z,18.40
2018-09-04T01:38:36.176Z,18.30
2018-09-04T01:39:39.568Z,18.30
2018-09-04T01:40:42.882Z,18.30
2018-09-04T01:41:46.199Z,18.30
2018-09-04T01:42:49.559Z,18.20
2018-09-04T01:43:52.913Z,18.20
2018-09-04T01:44:56.287Z,18.30
2018-09-04T01:45:59.645Z,18.30
2018-09-04T01:47:02.991Z,18.30
2018-09-04T01:48:06.312Z,18.30
2018-09-04T01:49:09.674Z,18.30
2018-09-04T01:50:13.018Z,18.30
2018-09-04T01:51:16.374Z,18.40
2018-09-04T01:52:19.728Z,18.40
2018-09-04T01:53:23.063Z,18.40
2018-09-04T01:54:26.385Z,18.50
2018-09-04T01:55:29.763Z,18.50
2018-09-04T01:56:33.079Z,18.50
2018-09-04T01:57:36.404Z,18.50
2018-09-04T01:58:39.730Z,18.40
2018-09-04T01:59:43.059Z,18.40
2018-09-04T02:00:46.404Z,18.40
2018-09-04T02:01:49.786Z,18.40
2018-09-04T02:02:53.110Z,18.40
2018-09-04T02:03:56.426Z,18.40
2018-09-04T02:04:59.772Z,18.40
2018-09-04T02:06:03.134Z,18.40
2018-09-04T02:07:06.481Z,18.40
2018-09-04T02:08:09.787Z,18.30
2018-09-04T02:09:13.144Z,18.20
2018-09-04T02:10:16.480Z,18.20
2018-09-04T02:11:19.830Z,18.20
2018-09-04T02:12:23.192Z,18.10
2018-09-04T02:13:26.515Z,18.10
2018-09-04T02:14:29.835Z,18.20
2018-09-04T02:15:33.224Z,18.20
2018-09-04T02:16:36.619Z,18.20
2018-09-04T02:17:39.931Z,18.10
2018-09-04T02:18:43.266Z,18.10
2018-09-04T02:19:46.587Z,18.00
2018-09-04T02:20:49.962Z,18.00
2018-09-04T02:21:53.280Z,18.00
2018-09-04T02:22:56.629Z,18.00
2018-09-04T02:23:59.950Z,18.00
2018-09-04T02:25:03.296Z,18.10
2018-09-04T02:26:06.675Z,18.10
2018-09-04T02:27:09.991Z,18.10
2018-09-04T02:28:13.308Z,18.10
2018-09-04T02:29:16.623Z,18.10
2018-09-04T02:30:19.938Z,18.00
2018-09-04T02:31:23.276Z,18.00
2018-09-04T02:32:26.602Z,18.10
2018-09-04T02:33:29.918Z,18.10
2018-09-04T02:34:33.235Z,18.00
2018-09-04T02:35:36.551Z,18.00
2018-09-04T02:36:39.983Z,17.90
2018-09-04T02:37:43.301Z,17.90
2018-09-04T02:38:46.610Z,17.80
2018-09-04T02:39:49.968Z,17.80
2018-09-04T02:40:53.270Z,17.80
2018-09-04T02:41:56.590Z,17.80
2018-09-04T02:42:59.934Z,17.80
2018-09-04T02:44:03.315Z,17.80
2018-09-04T02:45:06.680Z,17.80
2018-09-04T02:46:10.051Z,17.90
2018-09-04T02:47:13.367Z,17.80
2018-09-04T02:48:16.717Z,17.80
2018-09-04T02:49:20.042Z,17.90
2018-09-04T02:50:23.351Z,17.90
2018-09-04T02:51:26.678Z,17.90
2018-09-04T02:52:30.008Z,17.90
2018-09-04T02:53:33.343Z,17.90
2018-09-04T02:54:36.695Z,18.00
2018-09-04T02:55:40.007Z,18.00
2018-09-04T02:56:43.322Z,18.00
2018-09-04T02:57:46.635Z,18.00
2018-09-04T02:58:50.035Z,18.00
2018-09-04T02:59:53.353Z,17.90
2018-09-04T03:00:56.691Z,17.90
2018-09-04T03:02:00.023Z,17.90
2018-09-04T03:03:03.334Z,17.90
2018-09-04T03:04:06.676Z,17.90
2018-09-04T03:05:10.029Z,17.80
2018-09-04T03:06:13.422Z,17.80
2018-09-04T03:07:16.721Z,17.80
2018-09-04T03:08:20.040Z,17.80
2018-09-04T03:09:23.422Z,17.80
2018-09-04T03:10:26.727Z,17.80
2018-09-04T03:11:30.038Z,17.80
2018-09-04T03:12:33.360Z,17.80
2018-09-04T03:13:36.771Z,17.80
2018-09-04T03:14:40.055Z,17.90
2018-09-04T03:15:43.380Z,17.90
2018-09-04T03:16:46.695Z,17.90
2018-09-04T03:17:50.031Z,17.90
2018-09-04T03:18:53.389Z,18.00
2018-09-04T03:19:56.706Z,18.00
2018-09-04T03:21:00.022Z,18.00
2018-09-04T03:22:03.398Z,17.90
2018-09-04T03:23:07.008Z,17.90
2018-09-04T03:24:10.338Z,18.00
2018-09-04T03:25:13.678Z,18.00
2018-09-04T03:26:16.987Z,18.00
2018-09-04T03:27:20.331Z,18.00
2018-09-04T03:28:23.688Z,18.00
2018-09-04T03:29:27.004Z,18.00
2018-09-04T03:30:30.467Z,18.00
2018-09-04T03:31:33.779Z,18.00
2018-09-04T03:32:37.095Z,18.00
2018-09-04T03:33:40.431Z,17.90
2018-09-04T03:34:43.754Z,18.00
2018-09-04T03:35:47.108Z,18.00
2018-09-04T03:36:50.425Z,18.00
2018-09-04T03:37:53.759Z,18.00
2018-09-04T03:38:57.166Z,18.00
2018-09-04T03:40:00.478Z,18.00
2018-09-04T03:41:03.789Z,17.90
2018-09-04T03:42:07.106Z,17.90
2018-09-04T03:43:10.455Z,17.90
2018-09-04T03:44:13.865Z,17.90
2018-09-04T03:45:17.158Z,17.90
2018-09-04T03:46:20.485Z,17.90
2018-09-04T03:47:23.847Z,18.00
2018-09-04T03:48:27.179Z,17.90
2018-09-04T03:49:30.505Z,18.00
2018-09-04T03:50:33.842Z,18.00
2018-09-04T03:51:37.184Z,18.00
2018-09-04T03:52:40.505Z,18.00
2018-09-04T03:53:43.892Z,18.00
2018-09-04T03:54:47.210Z,18.00
2018-09-04T03:55:50.522Z,18.00
2018-09-04T03:56:53.834Z,17.90
2018-09-04T03:57:57.146Z,17.90
2018-09-04T03:59:00.549Z,17.90
2018-09-04T04:00:03.962Z,17.90
2018-09-04T04:01:07.363Z,17.90
2018-09-04T04:02:10.715Z,17.90
2018-09-04T04:03:14.060Z,17.90
2018-09-04T04:04:17.412Z,17.90
2018-09-04T04:05:20.757Z,17.90
2018-09-04T04:06:24.125Z,17.90
2018-09-04T04:07:27.484Z,17.90
2018-09-04T04:08:30.812Z,17.90
2018-09-04T04:09:34.166Z,17.90
2018-09-04T04:10:37.528Z,17.90
2018-09-04T04:11:40.839Z,17.90
2018-09-04T04:12:44.195Z,17.90
2018-09-04T04:13:47.567Z,17.90
2018-09-04T04:14:50.890Z,18.00
2018-09-04T04:15:54.207Z,17.90
2018-09-04T04:16:57.549Z,17.90
2018-09-04T04:18:00.867Z,17.90
2018-09-04T04:19:04.282Z,17.90
2018-09-04T04:20:07.642Z,17.90
2018-09-04T04:21:11.003Z,18.00
2018-09-04T04:22:14.336Z,17.90
2018-09-04T04:23:17.677Z,18.00
2018-09-04T04:24:21.027Z,18.00
2018-09-04T04:25:24.350Z,18.00
2018-09-04T04:26:27.650Z,18.10
2018-09-04T04:27:31.036Z,18.00
2018-09-04T04:28:34.367Z,18.00
2018-09-04T04:29:37.711Z,18.00
2018-09-04T04:30:41.032Z,18.00
2018-09-04T04:31:44.395Z,18.00
2018-09-04T04:32:47.746Z,18.00
2018-09-04T04:33:51.510Z,17.90
2018-09-04T04:34:54.888Z,17.80
2018-09-04T04:35:58.236Z,17.80
2018-09-04T04:37:01.619Z,17.80
2018-09-04T04:38:04.976Z,17.80
2018-09-04T04:39:09.138Z,17.70
2018-09-04T04:40:12.637Z,17.80
2018-09-04T04:41:15.852Z,17.70
2018-09-04T04:42:19.215Z,17.80
2018-09-04T04:43:22.598Z,17.80
2018-09-04T04:44:25.918Z,17.70
2018-09-04T04:45:29.239Z,17.80
2018-09-04T04:46:32.556Z,17.80
2018-09-04T04:47:41.443Z,17.80
2018-09-04T04:48:44.754Z,17.80
2018-09-04T04:49:48.107Z,17.70
2018-09-04T04:50:51.430Z,17.70
2018-09-04T04:51:54.750Z,17.70
2018-09-04T04:52:58.079Z,17.70
2018-09-04T04:54:01.428Z,17.70
2018-09-04T04:55:04.822Z,17.70
2018-09-04T04:56:08.172Z,17.80
2018-09-04T04:57:11.506Z,17.80
2018-09-04T04:58:14.832Z,17.80
2018-09-04T04:59:18.190Z,17.90
2018-09-04T05:00:21.551Z,17.90
2018-09-04T05:01:24.892Z,17.90
2018-09-04T05:02:28.223Z,17.80
2018-09-04T05:03:31.543Z,17.80
2018-09-04T05:04:34.913Z,17.80
2018-09-04T05:05:38.235Z,17.80
2018-09-04T05:06:41.566Z,17.80
2018-09-04T05:07:44.872Z,17.80
2018-09-04T05:08:48.187Z,17.80
2018-09-04T05:09:51.570Z,17.80
2018-09-04T05:10:54.939Z,17.80
2018-09-04T05:11:58.292Z,17.80
2018-09-04T05:13:01.627Z,17.80
2018-09-04T05:14:04.936Z,17.80
2018-09-04T05:15:08.335Z,17.70
2018-09-04T05:16:11.662Z,17.70
2018-09-04T05:17:15.058Z,17.80
2018-09-04T05:18:18.410Z,17.70
2018-09-04T05:19:21.774Z,17.70
2018-09-04T05:20:26.762Z,17.70
2018-09-04T05:21:30.115Z,17.70
2018-09-04T05:22:33.475Z,17.70
2018-09-04T05:23:36.821Z,17.70
2018-09-04T05:24:40.159Z,17.70
2018-09-04T05:25:43.501Z,17.70
2018-09-04T05:26:46.865Z,17.70
2018-09-04T05:27:50.230Z,17.70
2018-09-04T05:28:53.595Z,17.70
2018-09-04T05:29:56.951Z,17.70
2018-09-04T05:31:00.307Z,17.70
2018-09-04T05:32:14.312Z,17.70
2018-09-04T05:33:22.667Z,17.60
2018-09-04T05:34:26.223Z,17.70
2018-09-04T05:35:33.708Z,17.70
2018-09-04T05:36:37.083Z,17.70
2018-09-04T05:37:41.099Z,17.80
2018-09-04T05:38:44.423Z,17.80
2018-09-04T05:39:47.744Z,17.90
2018-09-04T05:40:51.072Z,17.80
2018-09-04T05:41:54.403Z,17.80
2018-09-04T05:43:00.217Z,17.90
2018-09-04T05:44:03.559Z,17.90
2018-09-04T05:45:07.784Z,17.80
2018-09-04T05:46:15.575Z,17.90
2018-09-04T05:47:18.955Z,17.80
2018-09-04T05:48:22.292Z,17.90
2018-09-04T05:49:29.711Z,17.80
2018-09-04T05:50:33.130Z,17.90
2018-09-04T05:51:36.451Z,17.90
2018-09-04T05:52:39.770Z,17.90
2018-09-04T05:53:43.122Z,18.00
2018-09-04T05:54:46.443Z,18.00
2018-09-04T05:55:49.877Z,18.00
2018-09-04T05:56:53.210Z,18.00
2018-09-04T05:57:56.790Z,18.00
2018-09-04T05:59:00.180Z,18.00
2018-09-04T06:00:06.355Z,18.00
2018-09-04T06:01:09.718Z,18.00
2018-09-04T06:02:13.051Z,18.00
2018-09-04T06:03:16.403Z,18.10
2018-09-04T06:04:19.714Z,18.00
2018-09-04T06:05:23.331Z,18.00
2018-09-04T06:06:26.709Z,18.00
2018-09-04T06:07:30.051Z,18.10
2018-09-04T06:08:33.370Z,18.10
2018-09-04T06:09:36.682Z,18.10
2018-09-04T06:10:40.011Z,18.20
2018-09-04T06:11:43.682Z,18.30
2018-09-04T06:12:47.001Z,18.30
2018-09-04T06:13:50.456Z,18.30
2018-09-04T06:14:53.805Z,18.30
2018-09-04T06:15:57.179Z,18.20
2018-09-04T06:17:00.696Z,18.30
2018-09-04T06:18:04.093Z,18.30
2018-09-04T06:19:07.440Z,18.30
2018-09-04T06:20:10.931Z,18.30
2018-09-04T06:21:14.187Z,18.40
2018-09-04T06:22:17.511Z,18.40
2018-09-04T06:23:20.894Z,18.40
2018-09-04T06:24:24.223Z,18.40
2018-09-04T06:25:27.593Z,18.40
2018-09-04T06:26:30.918Z,18.30
2018-09-04T06:27:34.287Z,18.20
2018-09-04T06:28:37.747Z,18.10
2018-09-04T06:29:41.138Z,18.10
2018-09-04T06:30:44.498Z,18.10
2018-09-04T06:31:47.827Z,18.10
2018-09-04T06:32:51.170Z,18.20
2018-09-04T06:33:54.629Z,18.20
2018-09-04T06:34:57.992Z,18.20
2018-09-04T06:36:01.319Z,18.30
2018-09-04T06:37:04.770Z,18.40
2018-09-04T06:38:08.102Z,18.40
2018-09-04T06:39:11.973Z,18.50
2018-09-04T06:40:15.291Z,18.40
2018-09-04T06:41:18.657Z,18.50
2018-09-04T06:42:22.001Z,18.50
2018-09-04T06:43:25.374Z,18.60
2018-09-04T06:44:28.747Z,18.60
2018-09-04T06:45:32.127Z,18.60
2018-09-04T06:46:35.527Z,18.70
2018-09-04T06:47:38.874Z,18.70
2018-09-04T06:48:42.211Z,18.70
2018-09-04T06:49:45.577Z,18.70
2018-09-04T06:50:48.906Z,18.80
2018-09-04T06:51:52.282Z,18.80
2018-09-04T06:52:55.614Z,18.80
2018-09-04T06:53:58.942Z,18.90
2018-09-04T06:55:02.275Z,18.90
2018-09-04T06:56:06.295Z,18.90
2018-09-04T06:57:09.685Z,18.80
2018-09-04T06:58:13.354Z,18.80
2018-09-04T06:59:16.687Z,18.80
2018-09-04T07:00:20.014Z,18.80
2018-09-04T07:01:23.375Z,18.80
2018-09-04T07:02:26.752Z,18.70
2018-09-04T07:03:30.079Z,18.70
2018-09-04T07:04:33.411Z,18.70
2018-09-04T07:05:36.736Z,18.70
2018-09-04T07:06:40.071Z,18.70
2018-09-04T07:07:43.463Z,18.70
2018-09-04T07:08:46.803Z,18.70
2018-09-04T07:09:50.123Z,18.60
2018-09-04T07:10:53.475Z,18.60
2018-09-04T07:11:56.835Z,18.60
2018-09-04T07:13:00.171Z,18.60
2018-09-04T07:14:03.581Z,18.60
2018-09-04T07:15:07.248Z,18.60
2018-09-04T07:16:10.584Z,18.60
2018-09-04T07:17:13.961Z,18.60
2018-09-04T07:18:17.323Z,18.70
2018-09-04T07:19:20.982Z,18.70
2018-09-04T07:20:24.323Z,18.80
2018-09-04T07:21:34.359Z,18.80
2018-09-04T07:22:37.745Z,18.80
2018-09-04T07:23:41.091Z,18.90
2018-09-04T07:24:44.438Z,19.00
2018-09-04T07:25:47.951Z,19.00
2018-09-04T07:26:51.333Z,19.10
2018-09-04T07:27:54.675Z,19.10
2018-09-04T07:28:58.343Z,19.10
2018-09-04T07:30:01.694Z,19.10
2018-09-04T07:31:05.152Z,19.20
2018-09-04T07:32:08.509Z,19.20
2018-09-04T07:33:11.907Z,19.30
2018-09-04T07:34:15.219Z,19.30
2018-09-04T07:35:18.590Z,19.40
2018-09-04T07:36:21.972Z,19.40
2018-09-04T07:37:25.264Z,19.50
2018-09-04T07:38:28.635Z,19.50
2018-09-04T07:39:32.716Z,19.50
2018-09-04T07:40:36.038Z,19.60
2018-09-04T07:41:39.562Z,19.60
2018-09-04T07:42:42.885Z,19.70
2018-09-04T07:43:46.253Z,19.80
2018-09-04T07:44:49.594Z,19.90
2018-09-04T07:45:52.943Z,19.90
2018-09-04T07:46:56.258Z,20.00
2018-09-04T07:47:59.580Z,20.10
2018-09-04T07:49:02.978Z,20.10
2018-09-04T07:50:07.178Z,20.10
2018-09-04T07:51:10.495Z,20.20
2018-09-04T07:52:13.822Z,20.30
2018-09-04T07:53:17.204Z,20.30
2018-09-04T07:54:20.531Z,20.50
2018-09-04T07:55:24.092Z,20.50
2018-09-04T07:56:27.430Z,20.60
2018-09-04T07:57:30.775Z,20.60
2018-09-04T07:58:34.156Z,20.60
2018-09-04T07:59:37.560Z,20.70
2018-09-04T08:00:40.903Z,20.70
2018-09-04T08:01:44.227Z,20.80
2018-09-04T08:02:47.540Z,20.90
2018-09-04T08:03:50.875Z,21.10
2018-09-04T08:04:54.203Z,21.10
2018-09-04T08:05:57.515Z,21.10
2018-09-04T08:07:00.852Z,21.10
2018-09-04T08:08:04.229Z,21.20
2018-09-04T08:09:08.312Z,21.30
2018-09-04T08:10:11.648Z,21.40
2018-09-04T08:11:15.054Z,21.40
2018-09-04T08:12:18.363Z,21.50
2018-09-04T08:13:21.726Z,21.40
2018-09-04T08:14:25.474Z,21.40
2018-09-04T08:15:28.787Z,21.30
2018-09-04T08:16:32.133Z,21.20
2018-09-04T08:17:35.552Z,21.10
2018-09-04T08:18:38.899Z,21.10
2018-09-04T08:19:42.211Z,21.10
2018-09-04T08:20:45.551Z,21.20
2018-09-04T08:21:48.870Z,21.20
2018-09-04T08:22:54.279Z,21.30
2018-09-04T08:23:57.586Z,21.30
2018-09-04T08:25:00.911Z,21.30
2018-09-04T08:26:04.304Z,21.30
2018-09-04T08:27:07.631Z,21.30
2018-09-04T08:28:10.968Z,21.10
2018-09-04T08:29:14.292Z,21.10
2018-09-04T08:30:17.643Z,21.10
2018-09-04T08:31:20.994Z,21.10
2018-09-04T08:32:24.311Z,21.10
2018-09-04T08:33:27.629Z,21.00
2018-09-04T08:34:33.966Z,21.10
2018-09-04T08:35:37.313Z,21.10
2018-09-04T08:36:40.622Z,21.20
2018-09-04T08:37:44.003Z,21.20
2018-09-04T08:38:49.820Z,21.30
2018-09-04T08:39:53.152Z,21.50
2018-09-04T08:40:56.458Z,21.70
2018-09-04T08:41:59.767Z,21.90
2018-09-04T08:43:03.083Z,22.20
2018-09-04T08:44:06.472Z,22.40
2018-09-04T08:45:09.794Z,22.60
2018-09-04T08:46:13.103Z,22.90
2018-09-04T08:47:16.527Z,22.90
2018-09-04T08:48:21.275Z,23.10
2018-09-04T08:49:24.619Z,23.40
2018-09-04T08:50:29.390Z,23.40
2018-09-04T08:51:32.766Z,23.50
2018-09-04T08:52:36.081Z,23.70
2018-09-04T08:53:39.441Z,23.90
2018-09-04T08:54:42.802Z,23.90
2018-09-04T08:55:46.258Z,24.10
2018-09-04T08:56:49.594Z,24.40
2018-09-04T08:57:52.964Z,24.70
2018-09-04T08:58:56.274Z,25.00
2018-09-04T08:59:59.615Z,25.30
2018-09-04T09:01:02.934Z,25.30
2018-09-04T09:02:06.271Z,25.50
2018-09-04T09:03:09.738Z,25.70
2018-09-04T09:04:13.046Z,25.80
2018-09-04T09:05:16.587Z,26.00
2018-09-04T09:06:19.911Z,26.00
2018-09-04T09:07:23.263Z,26.30
2018-09-04T09:08:26.699Z,26.40
2018-09-04T09:09:30.065Z,26.40
2018-09-04T09:10:33.455Z,26.30
2018-09-04T09:11:36.792Z,26.40
2018-09-04T09:12:40.146Z,26.30
2018-09-04T09:13:43.456Z,26.50
2018-09-04T09:14:46.798Z,26.80
2018-09-04T09:15:50.444Z,27.10
2018-09-04T09:16:53.791Z,27.50
2018-09-04T09:17:57.134Z,27.90
2018-09-04T09:19:00.472Z,28.00
2018-09-04T09:20:03.807Z,28.20
2018-09-04T09:21:07.156Z,28.50
2018-09-04T09:22:10.514Z,28.70
2018-09-04T09:23:13.930Z,29.00
2018-09-04T09:24:17.273Z,29.30
2018-09-04T09:25:20.692Z,29.60
2018-09-04T09:26:24.038Z,29.80
2018-09-04T09:27:27.373Z,30.00
2018-09-04T09:28:30.707Z,30.30
2018-09-04T09:29:34.087Z,30.60
2018-09-04T09:30:37.403Z,30.90
2018-09-04T09:31:40.766Z,31.10
2018-09-04T09:32:44.113Z,31.20
2018-09-04T09:33:47.735Z,31.50
2018-09-04T09:34:51.036Z,31.60
2018-09-04T09:35:54.350Z,31.70
2018-09-04T09:36:57.752Z,31.80
2018-09-04T09:38:01.356Z,31.50
2018-09-04T09:39:06.209Z,31.50
2018-09-04T09:45:41.852Z,31.80
2018-09-04T09:46:45.370Z,32.30
2018-09-04T09:47:50.088Z,32.40
2018-09-04T09:48:53.613Z,32.50
2018-09-04T09:49:57.192Z,32.70
2018-09-04T09:51:00.740Z,32.80
2018-09-04T09:52:04.238Z,33.00
2018-09-04T09:53:07.827Z,33.00
2018-09-04T09:54:11.275Z,33.20
2018-09-04T09:55:14.799Z,33.40
2018-09-04T09:56:18.381Z,33.40
2018-09-04T09:57:21.894Z,33.50
2018-09-04T09:58:25.395Z,33.50
2018-09-04T09:59:29.068Z,33.50
2018-09-04T10:00:38.531Z,33.70
2018-09-04T10:01:47.334Z,33.60
2018-09-04T10:02:55.066Z,33.40
2018-09-04T10:04:00.825Z,33.50
2018-09-04T10:05:04.514Z,33.30
2018-09-04T10:06:08.123Z,33.40
2018-09-04T10:07:11.655Z,33.40
2018-09-04T10:08:15.210Z,33.50
2018-09-04T10:09:18.694Z,33.60
2018-09-04T10:10:22.219Z,33.70
2018-09-04T10:11:25.811Z,33.60
2018-09-04T10:12:29.278Z,33.40
2018-09-04T10:13:32.858Z,33.40
2018-09-04T10:14:36.733Z,33.40
2018-09-04T10:15:40.324Z,33.40
2018-09-04T10:16:43.886Z,33.50
2018-09-04T10:17:47.480Z,33.50
2018-09-04T10:18:50.998Z,33.50
2018-09-04T10:19:54.541Z,33.50
2018-09-04T10:20:58.109Z,33.50
2018-09-04T10:22:01.797Z,33.40
2018-09-04T10:23:05.450Z,33.30
2018-09-04T10:24:08.927Z,33.10
2018-09-04T10:25:12.539Z,33.00
2018-09-04T10:26:16.161Z,32.80
2018-09-04T10:27:19.731Z,32.70
2018-09-04T10:28:23.315Z,32.60
2018-09-04T10:29:27.181Z,32.20
2018-09-04T10:30:30.711Z,32.00
2018-09-04T10:31:34.285Z,32.00
2018-09-04T10:32:37.889Z,31.90
2018-09-04T10:33:41.389Z,31.90
2018-09-04T10:34:44.922Z,31.70
2018-09-04T10:35:48.500Z,31.50
2018-09-04T10:36:52.024Z,31.50
2018-09-04T10:37:55.541Z,31.50
2018-09-04T10:39:04.311Z,31.50
2018-09-04T10:40:13.269Z,31.40
2018-09-04T10:41:16.946Z,31.30
2018-09-04T10:42:34.973Z,31.10
2018-09-04T10:43:38.488Z,31.10
2018-09-04T10:44:42.010Z,31.10
2018-09-04T10:45:50.913Z,31.00
2018-09-04T10:46:54.381Z,30.90
2018-09-04T10:47:57.919Z,30.80
2018-09-04T10:49:01.545Z,30.60
2018-09-04T10:50:05.078Z,30.50
2018-09-04T10:51:08.608Z,30.40
2018-09-04T10:52:12.232Z,30.40
2018-09-04T10:53:15.686Z,30.30
2018-09-04T10:54:19.196Z,30.30
2018-09-04T10:55:22.873Z,30.30
2018-09-04T10:56:26.409Z,30.40
2018-09-04T10:57:30.052Z,30.20
2018-09-04T10:58:33.593Z,30.00
2018-09-04T10:59:37.193Z,30.10
2018-09-04T11:00:40.756Z,30.20
2018-09-04T11:01:44.262Z,30.40
2018-09-04T11:02:47.842Z,30.50
2018-09-04T11:03:51.342Z,30.60
2018-09-04T11:04:54.908Z,30.70
2018-09-04T11:05:58.433Z,30.80
2018-09-04T11:07:02.054Z,30.80
2018-09-04T11:08:05.655Z,30.90
2018-09-04T11:09:11.310Z,31.00
2018-09-04T11:10:14.840Z,31.10
2018-09-04T11:11:18.657Z,31.00
2018-09-04T11:12:22.203Z,31.10
2018-09-04T11:13:25.772Z,31.10
2018-09-04T11:14:29.321Z,31.20
2018-09-04T11:15:32.797Z,31.30
2018-09-04T11:16:36.449Z,31.40
2018-09-04T11:17:40.000Z,31.30
2018-09-04T11:18:43.527Z,31.40
2018-09-04T11:19:47.101Z,31.40
2018-09-04T11:20:50.668Z,31.20
2018-09-04T11:21:54.220Z,31.30
2018-09-04T11:22:57.676Z,31.40
2018-09-04T11:24:01.183Z,31.30
2018-09-04T11:25:04.767Z,31.30
2018-09-04T11:26:08.354Z,31.30
2018-09-04T11:27:11.915Z,31.30
2018-09-04T11:28:15.401Z,31.40
2018-09-04T11:29:18.917Z,31.40
2018-09-04T11:30:22.401Z,31.50
2018-09-04T11:31:26.013Z,31.50
2018-09-04T11:32:29.634Z,31.60
2018-09-04T11:33:33.175Z,31.60
2018-09-04T11:34:36.662Z,31.70
2018-09-04T11:35:40.235Z,31.70
2018-09-04T11:36:43.796Z,31.60
2018-09-04T11:37:47.295Z,31.40
2018-09-04T11:38:50.794Z,31.30
2018-09-04T11:39:54.353Z,31.10
2018-09-04T11:40:57.834Z,31.00
2018-09-04T11:42:01.354Z,31.00
2018-09-04T11:43:04.941Z,31.20
2018-09-04T11:44:08.502Z,31.30
2018-09-04T11:45:12.079Z,31.20
2018-09-04T11:46:15.695Z,31.40
2018-09-04T11:47:19.201Z,31.50
2018-09-04T11:48:22.728Z,31.60
2018-09-04T11:49:26.358Z,31.50
2018-09-04T11:50:29.890Z,31.70
2018-09-04T11:51:33.481Z,31.80
2018-09-04T11:52:37.279Z,31.90
2018-09-04T11:53:40.769Z,31.90
2018-09-04T11:54:44.324Z,31.90
2018-09-04T11:55:47.902Z,31.90
2018-09-04T11:56:51.583Z,31.70
2018-09-04T11:57:55.079Z,31.70
2018-09-04T11:58:58.646Z,31.70
2018-09-04T12:00:02.502Z,31.70
2018-09-04T12:01:13.815Z,31.90
2018-09-04T12:02:22.676Z,32.00
2018-09-04T12:03:26.348Z,32.10
2018-09-04T12:04:29.890Z,32.30
2018-09-04T12:05:33.377Z,32.40
2018-09-04T12:06:36.939Z,32.60
2018-09-04T12:07:40.406Z,32.60
2018-09-04T12:08:43.962Z,32.50
2018-09-04T12:09:48.044Z,32.30
2018-09-04T12:10:53.028Z,32.40
2018-09-04T12:11:56.961Z,32.50
2018-09-04T12:13:00.741Z,32.60
2018-09-04T12:14:04.322Z,32.50
2018-09-04T12:15:07.802Z,32.60
2018-09-04T12:16:11.406Z,32.70
2018-09-04T12:17:15.100Z,32.70
2018-09-04T12:18:24.505Z,32.70
2018-09-04T12:20:36.396Z,32.50
2018-09-04T12:21:39.930Z,32.50
2018-09-04T12:22:44.182Z,32.30
2018-09-04T12:23:47.765Z,32.40
2018-09-04T12:24:52.019Z,32.50
2018-09-04T12:25:56.886Z,32.70
2018-09-04T12:27:00.448Z,32.70
2018-09-04T12:28:04.223Z,32.50
2018-09-04T12:29:07.804Z,32.60
2018-09-04T12:30:11.851Z,32.80
2018-09-04T12:31:15.430Z,32.80
2018-09-04T12:32:18.963Z,33.00
2018-09-04T12:33:22.818Z,33.20
2018-09-04T12:34:26.523Z,33.40
2018-09-04T12:35:30.597Z,33.70
2018-09-04T12:36:34.435Z,33.90
2018-09-04T12:37:37.986Z,34.00
2018-09-04T12:38:42.805Z,34.20
2018-09-04T12:40:00.771Z,34.30
2018-09-04T12:41:07.004Z,34.30
2018-09-04T12:42:10.627Z,34.30
2018-09-04T12:43:14.155Z,34.30
2018-09-04T12:44:17.764Z,34.20
2018-09-04T12:45:21.292Z,34.40
2018-09-04T12:46:29.057Z,34.40
2018-09-04T12:47:32.796Z,34.40
2018-09-04T12:48:36.605Z,34.40
2018-09-04T12:49:40.154Z,34.30
2018-09-04T12:50:43.923Z,34.20
2018-09-04T12:51:47.556Z,34.10
2018-09-04T12:52:51.273Z,33.90
2018-09-04T12:53:54.862Z,33.70
2018-09-04T12:54:58.458Z,33.70
2018-09-04T12:56:02.127Z,33.70
2018-09-04T12:57:06.735Z,33.50
2018-09-04T12:58:10.356Z,33.50
2018-09-04T12:59:13.952Z,33.40
2018-09-04T13:00:18.935Z,33.00
2018-09-04T13:01:22.473Z,33.10
2018-09-04T13:02:26.016Z,32.40
2018-09-04T13:03:30.052Z,32.40
2018-09-04T13:04:33.618Z,32.30
2018-09-04T13:05:37.449Z,32.40
2018-09-04T13:06:41.083Z,32.60
2018-09-04T13:07:44.817Z,32.90
2018-09-04T13:08:48.333Z,33.00
2018-09-04T13:09:52.111Z,33.20
2018-09-04T13:10:55.620Z,33.20
2018-09-04T13:11:59.165Z,33.50
2018-09-04T13:13:02.784Z,33.70
2018-09-04T13:14:06.655Z,33.80
2018-09-04T13:15:10.930Z,33.90
2018-09-04T13:16:14.514Z,34.10
2018-09-04T13:17:18.033Z,33.80
2018-09-04T13:18:21.598Z,33.60
2018-09-04T13:19:25.218Z,32.90
2018-09-04T13:20:28.780Z,32.30
2018-09-04T13:21:32.478Z,32.00
2018-09-04T13:22:36.107Z,31.90
2018-09-04T13:23:39.841Z,31.70
2018-09-04T13:24:43.294Z,31.50
2018-09-04T13:25:47.009Z,31.50
2018-09-04T13:26:50.556Z,31.40
2018-09-04T13:27:54.132Z,31.30
2018-09-04T13:28:57.595Z,31.30
2018-09-04T13:30:01.289Z,31.10
2018-09-04T13:31:04.892Z,30.80
2018-09-04T13:32:08.457Z,30.80
2018-09-04T13:33:12.041Z,30.80
2018-09-04T13:34:15.680Z,31.10
2018-09-04T13:35:19.307Z,31.30
2018-09-04T13:36:22.918Z,31.20
2018-09-04T13:37:26.448Z,31.00
2018-09-04T13:38:29.942Z,31.10
2018-09-04T13:39:33.480Z,31.30
2018-09-04T13:40:37.179Z,31.50
2018-09-04T13:41:40.723Z,31.60
2018-09-04T13:42:44.379Z,31.90
2018-09-04T13:43:48.066Z,32.10
2018-09-04T13:44:54.303Z,32.00
2018-09-04T13:45:57.840Z,31.90